createdAt,value
2019-02-09T00:00:56.014Z,6.27
2019-02-09T00:03:24.913Z,7.10
2019-02-09T00:05:53.692Z,3.40
2019-02-09T00:08:22.916Z,5.93
2019-02-09T00:10:52.671Z,8.53
2019-02-09T00:13:21.759Z,4.47
2019-02-09T00:15:50.936Z,3.87
2019-02-09T00:18:19.819Z,3.80
2019-02-09T00:20:49.154Z,7.60
2019-02-09T00:23:17.964Z,5.40
2019-02-09T00:25:47.069Z,7.00
2019-02-09T00:28:15.911Z,8.28
2019-02-09T00:30:45.185Z,5.30
2019-02-09T00:33:16.361Z,3.60
2019-02-09T00:35:45.305Z,5.73
2019-02-09T00:38:14.191Z,4.43
2019-02-09T00:40:43.168Z,5.27
2019-02-09T00:43:12.135Z,5.27
2019-02-09T00:45:41.004Z,6.27
2019-02-09T00:48:09.826Z,4.57
2019-02-09T00:50:38.735Z,4.50
2019-02-09T00:53:07.503Z,4.50
2019-02-09T00:55:36.555Z,6.57
2019-02-09T00:58:05.675Z,4.40
2019-02-09T01:00:34.769Z,5.20
2019-02-09T01:03:04.501Z,6.43
2019-02-09T01:05:34.720Z,7.20
2019-02-09T01:08:04.129Z,3.60
2019-02-09T01:10:33.070Z,4.57
2019-02-09T01:13:01.976Z,4.80
2019-02-09T01:15:30.880Z,6.50
2019-02-09T01:17:59.966Z,7.00
2019-02-09T01:20:30.186Z,4.50
2019-02-09T01:22:59.384Z,5.93
2019-02-09T01:25:28.491Z,8.20
2019-02-09T01:27:57.505Z,4.03
2019-02-09T01:30:26.645Z,5.33
2019-02-09T01:32:55.531Z,4.30
2019-02-09T01:35:24.314Z,3.50
2019-02-09T01:37:53.259Z,5.17
2019-02-09T01:40:22.791Z,5.50
2019-02-09T01:42:52.043Z,4.17
2019-02-09T01:45:30.874Z,5.60
2019-02-09T01:48:00.007Z,4.83
2019-02-09T01:50:29.950Z,5.67
2019-02-09T01:53:00.976Z,5.93
2019-02-09T01:55:30.217Z,3.47
2019-02-09T01:57:59.103Z,5.70
2019-02-09T02:00:29.114Z,6.30
2019-02-09T02:02:58.742Z,4.60
2019-02-09T02:05:27.552Z,6.60
2019-02-09T02:07:56.534Z,6.07
2019-02-09T02:10:26.500Z,3.97
2019-02-09T02:12:55.740Z,8.63
2019-02-09T02:15:24.587Z,5.63
2019-02-09T02:17:53.776Z,3.00
2019-02-09T02:20:23.338Z,6.33
2019-02-09T02:22:52.184Z,3.80
2019-02-09T02:25:20.986Z,2.77
2019-02-09T02:27:50.043Z,3.83
2019-02-09T02:30:23.246Z,5.10
2019-02-09T02:32:52.671Z,3.00
2019-02-09T02:35:22.441Z,4.00
2019-02-09T02:37:51.305Z,6.07
2019-02-09T02:40:20.695Z,2.27
2019-02-09T02:42:49.500Z,3.90
2019-02-09T02:45:18.448Z,3.23
2019-02-09T02:47:47.426Z,4.90
2019-02-09T02:50:17.371Z,6.07
2019-02-09T02:52:48.200Z,3.27
2019-02-09T02:55:18.004Z,5.63
2019-02-09T02:57:46.998Z,6.23
2019-02-09T03:00:17.908Z,4.27
2019-02-09T03:02:46.745Z,7.03
2019-02-09T03:05:16.829Z,3.57
2019-02-09T03:07:45.949Z,4.80
2019-02-09T03:10:15.101Z,4.13
2019-02-09T03:12:44.140Z,4.40
2019-02-09T03:15:14.730Z,4.37
2019-02-09T03:17:43.704Z,4.60
2019-02-09T03:20:13.560Z,5.77
2019-02-09T03:22:42.594Z,4.13
2019-02-09T03:25:13.266Z,5.93
2019-02-09T03:27:42.244Z,4.33
2019-02-09T03:30:12.411Z,3.97
2019-02-09T03:32:41.941Z,3.40
2019-02-09T03:35:11.778Z,4.73
2019-02-09T03:37:40.741Z,3.40
2019-02-09T03:40:11.886Z,3.40
2019-02-09T03:42:40.757Z,5.97
2019-02-09T03:45:12.586Z,2.80
2019-02-09T03:47:41.852Z,4.40
2019-02-09T03:50:12.057Z,3.60
2019-02-09T03:52:43.644Z,3.20
2019-02-09T03:55:12.941Z,2.83
2019-02-09T03:57:42.349Z,5.80
2019-02-09T04:00:14.128Z,2.97
2019-02-09T04:02:43.485Z,4.33
2019-02-09T04:05:13.525Z,3.27
2019-02-09T04:07:42.552Z,3.33
2019-02-09T04:10:12.764Z,3.60
2019-02-09T04:12:41.906Z,6.20
2019-02-09T04:15:11.147Z,4.17
2019-02-09T04:17:40.054Z,3.97
2019-02-09T04:20:10.102Z,2.40
2019-02-09T04:22:39.169Z,2.13
2019-02-09T04:25:10.791Z,3.83
2019-02-09T04:27:39.901Z,5.43
2019-02-09T04:30:11.218Z,5.03
2019-02-09T04:32:40.194Z,4.53
2019-02-09T04:35:09.579Z,3.47
2019-02-09T04:37:38.538Z,3.77
2019-02-09T04:40:08.180Z,5.07
2019-02-09T04:42:37.133Z,6.90
2019-02-09T04:45:06.858Z,6.20
2019-02-09T04:47:35.795Z,6.40
2019-02-09T04:50:06.518Z,5.53
2019-02-09T04:52:35.536Z,6.17
2019-02-09T04:55:05.896Z,3.97
2019-02-09T04:57:34.846Z,6.87
2019-02-09T05:00:03.767Z,5.97
2019-02-09T05:02:32.886Z,6.10
2019-02-09T05:05:02.048Z,9.23
2019-02-09T05:07:30.851Z,4.40
2019-02-09T05:09:59.804Z,10.00
2019-02-09T05:12:28.720Z,10.10
2019-02-09T05:14:57.496Z,7.17
2019-02-09T05:17:26.382Z,8.73
2019-02-09T05:19:55.160Z,6.43
2019-02-09T05:22:24.023Z,10.53
2019-02-09T05:24:52.849Z,11.10
2019-02-09T05:27:21.599Z,7.73
2019-02-09T05:29:50.582Z,5.73
2019-02-09T05:32:19.472Z,8.03
2019-02-09T05:34:48.869Z,4.63
2019-02-09T05:37:17.769Z,8.27
2019-02-09T05:39:46.673Z,7.33
2019-02-09T05:42:15.719Z,9.00
2019-02-09T05:44:44.641Z,6.63
2019-02-09T05:47:14.120Z,7.23
2019-02-09T05:49:42.882Z,8.33
2019-02-09T05:52:12.113Z,12.03
2019-02-09T05:54:41.014Z,9.03
2019-02-09T05:57:09.864Z,5.00
2019-02-09T05:59:38.644Z,9.13
2019-02-09T06:02:07.507Z,9.80
2019-02-09T06:04:36.349Z,5.97
2019-02-09T06:07:05.190Z,7.70
2019-02-09T06:09:34.327Z,7.53
2019-02-09T06:12:03.116Z,6.63
2019-02-09T06:14:32.692Z,7.17
2019-02-09T06:17:01.862Z,5.13
2019-02-09T06:19:30.760Z,9.20
2019-02-09T06:21:59.845Z,7.27
2019-02-09T06:24:28.615Z,8.97
2019-02-09T06:26:57.630Z,9.13
2019-02-09T06:29:26.735Z,6.50
2019-02-09T06:31:55.619Z,7.50
2019-02-09T06:34:24.498Z,6.30
2019-02-09T06:36:53.689Z,8.97
2019-02-09T06:39:23.028Z,8.03
2019-02-09T06:41:52.012Z,11.33
2019-02-09T06:44:21.315Z,10.03
2019-02-09T06:46:50.290Z,6.93
2019-02-09T06:49:19.343Z,6.07
2019-02-09T06:51:48.459Z,13.87
2019-02-09T06:54:17.698Z,5.67
2019-02-09T06:56:46.481Z,8.90
2019-02-09T06:59:15.680Z,6.53
2019-02-09T07:01:48.760Z,9.43
2019-02-09T07:04:15.339Z,8.23
2019-02-09T07:06:44.540Z,6.80
2019-02-09T07:09:13.670Z,7.00
2019-02-09T07:11:42.729Z,9.57
2019-02-09T07:14:12.321Z,11.33
2019-02-09T07:16:41.353Z,7.50
2019-02-09T07:19:10.227Z,8.63
2019-02-09T07:21:39.038Z,9.10
2019-02-09T07:24:08.016Z,9.63
2019-02-09T07:26:37.145Z,7.40
2019-02-09T07:29:06.322Z,8.33
2019-02-09T07:31:35.186Z,8.27
2019-02-09T07:34:04.084Z,8.23
2019-02-09T07:36:33.868Z,10.30
2019-02-09T07:39:02.887Z,9.70
2019-02-09T07:41:32.162Z,7.03
2019-02-09T07:44:01.507Z,8.80
2019-02-09T07:46:30.324Z,5.47
2019-02-09T07:48:59.169Z,6.77
2019-02-09T07:51:28.299Z,8.17
2019-02-09T07:53:57.623Z,7.20
2019-02-09T07:56:26.890Z,7.83
2019-02-09T07:58:55.802Z,10.83
2019-02-09T08:01:25.630Z,10.07
2019-02-09T08:04:11.967Z,9.27
2019-02-09T08:06:41.378Z,8.83
2019-02-09T08:09:12.157Z,7.80
2019-02-09T08:11:41.201Z,6.00
2019-02-09T08:14:10.661Z,6.60
2019-02-09T08:16:39.688Z,9.03
2019-02-09T08:19:08.579Z,8.20
2019-02-09T08:21:37.722Z,11.73
2019-02-09T08:24:07.388Z,8.33
2019-02-09T08:26:37.609Z,8.30
2019-02-09T08:29:07.633Z,9.93
2019-02-09T08:31:36.815Z,7.73
2019-02-09T08:34:05.927Z,7.07
2019-02-09T08:36:35.507Z,8.27
2019-02-09T08:39:06.488Z,5.30
2019-02-09T08:41:36.030Z,12.90
2019-02-09T08:44:04.937Z,9.97
2019-02-09T08:46:33.810Z,9.73
2019-02-09T08:49:02.685Z,7.93
2019-02-09T08:51:31.559Z,11.03
2019-02-09T08:54:00.915Z,8.80
2019-02-09T08:56:30.217Z,10.07
2019-02-09T08:58:59.242Z,13.10
2019-02-09T09:01:29.245Z,9.13
2019-02-09T09:04:00.765Z,9.50
2019-02-09T09:06:29.864Z,8.47
2019-02-09T09:08:59.007Z,8.70
2019-02-09T09:11:29.105Z,7.97
2019-02-09T09:13:58.742Z,10.33
2019-02-09T09:16:27.792Z,8.80
2019-02-09T09:18:56.746Z,10.60
2019-02-09T09:21:25.614Z,10.50
2019-02-09T09:23:54.642Z,14.13
2019-02-09T09:26:23.761Z,13.47
2019-02-09T09:28:53.009Z,9.70
2019-02-09T09:31:21.882Z,13.27
2019-02-09T09:33:51.028Z,11.20
2019-02-09T09:36:21.608Z,11.90
2019-02-09T09:38:50.612Z,8.83
2019-02-09T09:41:19.471Z,20.23
2019-02-09T09:43:48.551Z,10.17
2019-02-09T09:46:17.767Z,13.63
2019-02-09T09:48:46.782Z,7.60
2019-02-09T09:51:17.744Z,11.27
2019-02-09T09:53:46.679Z,12.77
2019-02-09T09:56:16.208Z,6.37
2019-02-09T09:58:45.101Z,9.17
2019-02-09T10:01:14.254Z,8.97
2019-02-09T10:03:43.471Z,10.32
2019-02-09T10:06:12.631Z,12.23
2019-02-09T10:08:41.533Z,10.03
2019-02-09T10:11:10.826Z,9.90
2019-02-09T10:13:39.745Z,11.50
2019-02-09T10:16:08.671Z,10.63
2019-02-09T10:18:37.756Z,8.80
2019-02-09T10:21:07.489Z,10.47
2019-02-09T10:23:36.724Z,10.40
2019-02-09T10:26:05.974Z,12.00
2019-02-09T10:28:35.297Z,13.37
2019-02-09T10:31:04.556Z,10.03
2019-02-09T10:33:34.133Z,6.40
2019-02-09T10:36:03.223Z,10.13
2019-02-09T10:38:32.253Z,11.67
2019-02-09T10:41:01.321Z,13.47
2019-02-09T10:43:30.461Z,10.33
2019-02-09T10:45:59.446Z,14.37
2019-02-09T10:48:28.450Z,12.53
2019-02-09T10:50:57.779Z,13.23
2019-02-09T10:53:26.866Z,12.50
2019-02-09T10:55:56.199Z,13.63
2019-02-09T10:58:25.242Z,9.40
2019-02-09T11:00:55.938Z,12.40
2019-02-09T11:03:25.247Z,12.90
2019-02-09T11:05:54.837Z,9.57
2019-02-09T11:08:23.797Z,15.13
2019-02-09T11:10:52.650Z,10.70
2019-02-09T11:13:21.761Z,13.37
2019-02-09T11:15:51.739Z,13.97
2019-02-09T11:18:20.891Z,12.57
2019-02-09T11:20:50.155Z,12.63
2019-02-09T11:23:19.582Z,9.50
2019-02-09T11:25:51.707Z,9.40
2019-02-09T11:28:20.889Z,13.50
2019-02-09T11:30:49.914Z,7.97
2019-02-09T11:33:18.856Z,11.50
2019-02-09T11:35:47.963Z,9.77
2019-02-09T11:38:17.197Z,12.67
2019-02-09T11:40:47.757Z,9.30
2019-02-09T11:43:17.289Z,10.37
2019-02-09T11:45:46.580Z,11.33
2019-02-09T11:48:15.681Z,8.43
2019-02-09T11:50:45.187Z,6.50
2019-02-09T11:53:14.372Z,13.10
2019-02-09T11:55:44.733Z,9.67
2019-02-09T11:58:14.058Z,10.53
2019-02-09T12:00:44.964Z,10.03
2019-02-09T12:03:16.126Z,10.07
2019-02-09T12:05:45.289Z,11.53
2019-02-09T12:08:15.173Z,9.97
2019-02-09T12:10:44.207Z,9.33
2019-02-09T12:13:14.593Z,12.30
2019-02-09T12:15:43.539Z,12.53
2019-02-09T12:18:12.740Z,8.13
2019-02-09T12:20:41.773Z,11.33
2019-02-09T12:23:10.999Z,11.57
2019-02-09T12:25:41.338Z,11.15
2019-02-09T12:28:10.511Z,8.93
2019-02-09T12:30:40.473Z,12.93
2019-02-09T12:33:09.724Z,8.83
2019-02-09T12:35:38.778Z,12.67
2019-02-09T12:38:08.263Z,12.60
2019-02-09T12:40:37.467Z,8.83
2019-02-09T12:43:06.852Z,14.37
2019-02-09T12:45:36.067Z,12.63
2019-02-09T12:48:07.266Z,8.10
2019-02-09T12:50:37.517Z,10.10
2019-02-09T12:53:08.133Z,10.23
2019-02-09T12:55:37.338Z,7.30
2019-02-09T12:58:06.321Z,11.50
2019-02-09T13:00:36.031Z,7.73
2019-02-09T13:03:09.275Z,9.07
2019-02-09T13:05:38.349Z,10.10
2019-02-09T13:08:07.352Z,9.23
2019-02-09T13:10:37.604Z,11.03
2019-02-09T13:13:07.068Z,10.80
2019-02-09T13:15:36.570Z,11.10
2019-02-09T13:18:05.981Z,10.27
2019-02-09T13:20:34.919Z,6.03
2019-02-09T13:23:05.105Z,7.63
2019-02-09T13:25:35.978Z,9.50
2019-02-09T13:28:05.769Z,10.40
2019-02-09T13:30:35.262Z,6.93
2019-02-09T13:33:04.330Z,9.23
2019-02-09T13:35:33.436Z,10.17
2019-02-09T13:38:02.658Z,8.10
2019-02-09T13:40:31.761Z,8.13
2019-02-09T13:43:00.826Z,10.57
2019-02-09T13:45:30.979Z,14.23
2019-02-09T13:48:00.438Z,10.97
2019-02-09T13:50:30.268Z,8.17
2019-02-09T13:52:59.528Z,12.40
2019-02-09T13:55:29.075Z,11.90
2019-02-09T13:57:59.014Z,12.70
2019-02-09T14:00:28.832Z,10.67
2019-02-09T14:02:58.307Z,14.57
2019-02-09T14:05:27.815Z,10.43
2019-02-09T14:07:57.244Z,11.67
2019-02-09T14:10:26.336Z,9.93
2019-02-09T14:12:55.744Z,8.37
2019-02-09T14:15:26.038Z,9.33
2019-02-09T14:17:55.188Z,11.27
2019-02-09T14:20:24.875Z,11.93
2019-02-09T14:22:53.985Z,11.90
2019-02-09T14:25:23.543Z,14.50
2019-02-09T14:27:55.754Z,9.00
2019-02-09T14:30:25.981Z,11.80
2019-02-09T14:32:55.375Z,10.70
2019-02-09T14:35:25.191Z,11.20
2019-02-09T14:37:54.378Z,11.13
2019-02-09T14:40:24.430Z,12.53
2019-02-09T14:42:53.838Z,9.53
2019-02-09T14:45:24.112Z,11.50
2019-02-09T14:47:53.276Z,11.77
2019-02-09T14:50:22.974Z,15.30
2019-02-09T14:52:52.832Z,11.77
2019-02-09T14:55:26.051Z,14.00
2019-02-09T14:57:55.204Z,10.90
2019-02-09T15:00:25.878Z,12.43
2019-02-09T15:02:55.451Z,11.03
2019-02-09T15:05:25.674Z,10.23
2019-02-09T15:07:54.911Z,10.23
2019-02-09T15:10:24.140Z,11.70
2019-02-09T15:12:53.098Z,8.93
2019-02-09T15:15:29.005Z,9.20
2019-02-09T15:17:58.351Z,11.63
2019-02-09T15:20:29.461Z,8.17
2019-02-09T15:22:58.507Z,9.40
2019-02-09T15:25:27.706Z,7.57
2019-02-09T15:27:56.964Z,11.67
2019-02-09T15:30:26.617Z,8.17
2019-02-09T15:32:55.580Z,6.23
2019-02-09T15:35:24.719Z,9.10
2019-02-09T15:37:53.678Z,4.30
2019-02-09T15:40:22.857Z,8.10
2019-02-09T15:42:58.267Z,8.27
2019-02-09T15:45:27.160Z,5.77
2019-02-09T15:47:56.235Z,8.90
2019-02-09T15:50:25.471Z,8.90
2019-02-09T15:52:54.463Z,6.77
2019-02-09T15:55:23.540Z,9.97
2019-02-09T15:57:52.392Z,11.33
2019-02-09T16:00:22.369Z,5.63
2019-02-09T16:02:52.557Z,5.83
2019-02-09T16:05:22.150Z,5.53
2019-02-09T16:07:51.938Z,6.40
2019-02-09T16:10:20.934Z,7.93
2019-02-09T16:12:49.974Z,7.70
2019-02-09T16:15:20.194Z,12.83
2019-02-09T16:17:49.300Z,8.60
2019-02-09T16:20:19.405Z,7.10
2019-02-09T16:22:48.541Z,5.93
2019-02-09T16:25:17.678Z,11.20
2019-02-09T16:27:47.283Z,6.97
2019-02-09T16:30:18.693Z,9.57
2019-02-09T16:32:48.061Z,8.87
2019-02-09T16:35:17.851Z,12.65
2019-02-09T16:37:48.855Z,10.70
2019-02-09T16:40:18.697Z,12.73
2019-02-09T16:42:49.833Z,13.10
2019-02-09T16:45:20.155Z,9.87
2019-02-09T16:47:48.959Z,7.70
2019-02-09T16:50:18.324Z,13.17
2019-02-09T16:52:47.896Z,9.63
2019-02-09T16:55:17.138Z,13.33
2019-02-09T16:57:46.137Z,9.13
2019-02-09T17:00:17.140Z,11.73
2019-02-09T17:02:46.099Z,10.20
2019-02-09T17:05:15.703Z,11.73
2019-02-09T17:07:44.756Z,9.57
2019-02-09T17:10:14.397Z,11.93
2019-02-09T17:12:43.370Z,12.83
2019-02-09T17:15:14.223Z,10.78
2019-02-09T17:17:43.433Z,10.17
2019-02-09T17:20:12.987Z,10.67
2019-02-09T17:22:42.251Z,9.80
2019-02-09T17:25:12.216Z,15.63
2019-02-09T17:27:41.119Z,11.20
2019-02-09T17:30:12.842Z,13.80
2019-02-09T17:32:41.925Z,15.03
2019-02-09T17:35:10.892Z,9.03
2019-02-09T17:37:39.880Z,11.37
2019-02-09T17:40:10.035Z,12.27
2019-02-09T17:42:39.194Z,12.50
2019-02-09T17:45:10.488Z,13.73
2019-02-09T17:47:39.785Z,12.23
2019-02-09T17:50:09.892Z,10.23
2019-02-09T17:52:38.862Z,12.67
2019-02-09T17:55:08.804Z,10.47
2019-02-09T17:57:37.827Z,11.33
2019-02-09T18:00:08.588Z,11.83
2019-02-09T18:02:37.428Z,16.23
2019-02-09T18:05:06.476Z,13.43
2019-02-09T18:07:35.411Z,12.10
2019-02-09T18:10:05.518Z,18.07
2019-02-09T18:12:34.519Z,9.23
2019-02-09T18:15:04.144Z,7.90
2019-02-09T18:17:33.615Z,17.63
2019-02-09T18:20:02.940Z,13.43
2019-02-09T18:22:31.903Z,10.47
2019-02-09T18:25:01.054Z,8.07
2019-02-09T18:27:30.371Z,13.87
2019-02-09T18:30:00.594Z,13.07
2019-02-09T18:32:29.724Z,12.77
2019-02-09T18:34:58.854Z,11.10
2019-02-09T18:37:27.714Z,6.37
2019-02-09T18:39:56.828Z,6.70
2019-02-09T18:42:26.180Z,12.73
2019-02-09T18:44:55.260Z,8.03
2019-02-09T18:47:24.321Z,11.73
2019-02-09T18:49:53.415Z,9.87
2019-02-09T18:52:22.347Z,11.60
2019-02-09T18:54:51.487Z,7.03
2019-02-09T18:57:21.524Z,10.80
2019-02-09T18:59:50.814Z,8.83
2019-02-09T19:02:19.804Z,10.80
2019-02-09T19:04:49.382Z,7.10
2019-02-09T19:07:18.256Z,8.13
2019-02-09T19:09:47.303Z,12.07
2019-02-09T19:12:16.319Z,9.73
2019-02-09T19:14:45.390Z,11.43
2019-02-09T19:17:14.437Z,9.10
2019-02-09T19:19:43.601Z,10.33
2019-02-09T19:22:20.127Z,11.27
2019-02-09T19:24:43.887Z,8.67
2019-02-09T19:27:12.952Z,11.23
2019-02-09T19:29:42.041Z,8.33
2019-02-09T19:32:11.383Z,13.90
2019-02-09T19:34:40.583Z,9.20
2019-02-09T19:37:10.000Z,12.03
2019-02-09T19:39:39.360Z,13.30
2019-02-09T19:42:08.328Z,13.10
2019-02-09T19:44:37.946Z,7.03
2019-02-09T19:47:07.159Z,12.10
2019-02-09T19:49:36.928Z,17.07
2019-02-09T19:52:06.362Z,8.53
2019-02-09T19:54:35.603Z,12.27
2019-02-09T19:57:05.555Z,14.10
2019-02-09T19:59:34.938Z,10.90
2019-02-09T20:02:05.877Z,17.37
2019-02-09T20:04:35.051Z,7.70
2019-02-09T20:07:04.404Z,18.33
2019-02-09T20:09:33.408Z,12.97
2019-02-09T20:12:02.493Z,13.07
2019-02-09T20:14:31.601Z,9.73
2019-02-09T20:17:00.985Z,12.93
2019-02-09T20:19:29.957Z,11.53
2019-02-09T20:21:59.076Z,12.87
2019-02-09T20:24:28.296Z,13.90
2019-02-09T20:26:57.511Z,10.63
2019-02-09T20:29:26.816Z,16.67
2019-02-09T20:31:58.880Z,9.30
2019-02-09T20:34:27.988Z,10.73
2019-02-09T20:36:56.887Z,14.80
2019-02-09T20:39:26.272Z,15.23
2019-02-09T20:41:55.383Z,11.33
2019-02-09T20:44:24.685Z,10.37
2019-02-09T20:46:53.802Z,12.73
2019-02-09T20:49:22.783Z,12.03
2019-02-09T20:51:51.720Z,12.33
2019-02-09T20:54:20.726Z,10.47
2019-02-09T20:56:49.777Z,15.77
2019-02-09T20:59:18.756Z,15.57
2019-02-09T21:01:48.371Z,11.63
2019-02-09T21:04:17.480Z,13.60
2019-02-09T21:06:46.859Z,9.70
2019-02-09T21:09:15.882Z,10.70
2019-02-09T21:11:44.839Z,16.37
2019-02-09T21:14:13.731Z,15.80
2019-02-09T21:16:42.737Z,9.80
2019-02-09T21:19:11.719Z,16.83
2019-02-09T21:21:41.260Z,11.87
2019-02-09T21:24:10.702Z,15.03
2019-02-09T21:26:39.775Z,13.43
2019-02-09T21:29:09.012Z,11.83
2019-02-09T21:31:37.915Z,11.87
2019-02-09T21:34:07.028Z,12.27
2019-02-09T21:36:36.284Z,12.50
2019-02-09T21:39:07.795Z,14.47
2019-02-09T21:41:37.415Z,13.50
2019-02-09T21:44:06.333Z,14.80
2019-02-09T21:46:35.908Z,10.37
2019-02-09T21:49:05.088Z,13.73
2019-02-09T21:51:34.402Z,12.63
2019-02-09T21:54:03.195Z,16.13
2019-02-09T21:56:32.322Z,10.53
2019-02-09T21:59:01.167Z,7.27
2019-02-09T22:01:30.458Z,11.03
2019-02-09T22:03:59.505Z,14.07
2019-02-09T22:06:29.283Z,12.30
2019-02-09T22:08:58.725Z,12.90
2019-02-09T22:11:27.833Z,10.90
2019-02-09T22:13:57.538Z,9.60
2019-02-09T22:16:26.354Z,13.00
2019-02-09T22:18:55.515Z,12.23
2019-02-09T22:21:24.742Z,10.70
2019-02-09T22:23:53.996Z,15.53
2019-02-09T22:26:23.290Z,11.53
2019-02-09T22:28:53.037Z,13.87
2019-02-09T22:31:22.190Z,15.40
2019-02-09T22:33:51.451Z,14.60
2019-02-09T22:36:20.544Z,11.37
2019-02-09T22:38:49.453Z,16.47
2019-02-09T22:41:18.506Z,8.47
2019-02-09T22:43:48.020Z,16.03
2019-02-09T22:46:16.968Z,13.80
2019-02-09T22:48:46.267Z,12.50
2019-02-09T22:51:15.148Z,12.27
2019-02-09T22:53:44.447Z,14.10
2019-02-09T22:56:13.448Z,13.13
2019-02-09T22:58:42.809Z,14.00
2019-02-09T23:01:33.618Z,10.07
2019-02-09T23:04:09.109Z,10.63
2019-02-09T23:06:41.270Z,12.60
2019-02-09T23:09:12.678Z,12.80
2019-02-09T23:11:41.728Z,9.30
2019-02-09T23:14:10.876Z,14.07
2019-02-09T23:16:40.099Z,13.43
2019-02-09T23:19:09.127Z,16.00
2019-02-09T23:21:38.339Z,12.20
2019-02-09T23:24:07.333Z,14.47
2019-02-09T23:26:36.480Z,11.83
2019-02-09T23:29:05.497Z,12.47
2019-02-09T23:31:34.665Z,13.23
2019-02-09T23:34:03.620Z,10.03
2019-02-09T23:36:32.963Z,10.87
2019-02-09T23:39:04.430Z,12.93
2019-02-09T23:41:33.466Z,12.73
2019-02-09T23:44:04.263Z,12.73
2019-02-09T23:46:33.251Z,12.60
2019-02-09T23:49:02.295Z,11.17
2019-02-09T23:51:31.535Z,12.57
2019-02-09T23:54:01.179Z,12.47
2019-02-09T23:56:30.131Z,13.40
2019-02-09T23:58:59.050Z,14.70
